createdAt,value
2022-11-28T00:02:04.115Z,73.91
2022-11-28T00:04:43.052Z,100.00
2022-11-28T00:07:12.836Z,100.00
2022-11-28T00:09:56.371Z,73.91
2022-11-28T00:12:24.382Z,73.29
2022-11-28T00:14:51.464Z,72.90
2022-11-28T00:17:18.581Z,72.99
2022-11-28T00:19:45.824Z,72.92
2022-11-28T00:22:17.101Z,72.92
2022-11-28T00:24:44.646Z,100.00
2022-11-28T00:27:12.381Z,72.92
2022-11-28T00:29:40.512Z,71.60
2022-11-28T00:32:07.708Z,70.17
2022-11-28T00:34:35.111Z,69.81
2022-11-28T00:37:02.289Z,70.03
2022-11-28T00:39:29.952Z,69.51
2022-11-28T00:41:57.084Z,69.63
2022-11-28T00:44:25.040Z,70.00
2022-11-28T00:46:52.259Z,70.23
2022-11-28T00:49:19.600Z,69.22
2022-11-28T00:51:49.779Z,100.00
2022-11-28T00:54:16.911Z,68.93
2022-11-28T00:56:44.505Z,100.00
2022-11-28T00:59:11.625Z,69.33
2022-11-28T01:01:41.920Z,100.00
2022-11-28T01:04:11.217Z,69.90
2022-11-28T01:06:43.549Z,69.83
2022-11-28T01:09:14.330Z,70.50
2022-11-28T01:11:43.629Z,69.93
2022-11-28T01:14:11.681Z,70.53
2022-11-28T01:16:39.616Z,70.56
2022-11-28T01:19:07.126Z,70.99
2022-11-28T01:21:35.272Z,71.02
2022-11-28T01:24:02.831Z,70.93
2022-11-28T01:26:30.936Z,70.81
2022-11-28T01:29:00.134Z,71.08
2022-11-28T01:31:30.083Z,71.35
2022-11-28T01:33:57.813Z,71.23
2022-11-28T01:36:25.642Z,71.31
2022-11-28T01:38:54.105Z,71.60
2022-11-28T01:41:24.922Z,71.60
2022-11-28T01:44:03.966Z,100.00
2022-11-28T01:46:32.231Z,100.00
2022-11-28T01:49:05.462Z,100.00
2022-11-28T01:51:33.032Z,100.00
2022-11-28T01:54:00.867Z,100.00
2022-11-28T01:56:36.225Z,100.00
2022-11-28T01:59:07.543Z,100.00
2022-11-28T02:01:35.168Z,100.00
2022-11-28T02:04:04.547Z,100.00
2022-11-28T02:06:32.807Z,100.00
2022-11-28T02:09:00.170Z,100.00
2022-11-28T02:11:45.139Z,71.07
2022-11-28T02:14:21.459Z,100.00
2022-11-28T02:17:08.522Z,100.00
2022-11-28T02:19:56.714Z,100.00
2022-11-28T02:22:56.182Z,100.00
2022-11-28T02:25:47.720Z,73.08
2022-11-28T02:28:31.672Z,100.00
2022-11-28T02:31:26.618Z,100.00
2022-11-28T02:34:07.231Z,100.00
2022-11-28T02:36:42.658Z,73.38
2022-11-28T02:39:13.733Z,100.00
2022-11-28T02:41:52.677Z,100.00
2022-11-28T02:44:53.423Z,100.00
2022-11-28T02:47:45.550Z,100.00
2022-11-28T02:50:19.297Z,100.00
2022-11-28T02:52:51.894Z,73.42
2022-11-28T02:55:20.172Z,73.83
2022-11-28T02:57:52.053Z,74.61
2022-11-28T03:00:37.381Z,74.64
2022-11-28T03:03:41.390Z,74.96
2022-11-28T03:06:23.039Z,100.00
2022-11-28T03:10:06.861Z,100.00
2022-11-28T03:13:02.839Z,74.96
2022-11-28T03:15:41.519Z,74.96
2022-11-28T03:19:16.222Z,100.00
2022-11-28T03:23:16.080Z,100.00
2022-11-28T03:26:05.928Z,74.96
2022-11-28T03:29:23.102Z,100.00
2022-11-28T03:32:53.643Z,100.00
2022-11-28T03:35:25.692Z,100.00
2022-11-28T03:38:13.315Z,74.96
2022-11-28T03:40:51.332Z,100.00
2022-11-28T03:44:27.723Z,100.00
2022-11-28T03:47:58.321Z,100.00
2022-11-28T03:50:35.435Z,74.96
2022-11-28T03:54:13.830Z,100.00
2022-11-28T03:56:54.380Z,76.76
2022-11-28T03:59:35.271Z,77.11
2022-11-28T04:02:39.065Z,77.30
2022-11-28T04:05:26.436Z,100.00
2022-11-28T04:08:04.030Z,100.00
2022-11-28T04:11:27.949Z,100.00
2022-11-28T04:14:35.517Z,100.00
2022-11-28T04:17:25.344Z,100.00
2022-11-28T04:20:00.870Z,100.00
2022-11-28T04:22:42.507Z,100.00
2022-11-28T04:25:13.806Z,77.75
2022-11-28T04:28:04.408Z,78.31
2022-11-28T04:30:32.645Z,100.00
2022-11-28T04:33:04.228Z,78.28
2022-11-28T04:35:38.355Z,100.00
2022-11-28T04:38:12.355Z,100.00
2022-11-28T04:43:30.200Z,79.62
2022-11-28T04:46:07.540Z,79.62
2022-11-28T04:48:48.299Z,100.00
2022-11-28T04:51:45.157Z,80.38
2022-11-28T04:54:21.609Z,80.01
2022-11-28T04:57:18.053Z,100.00
2022-11-28T04:59:47.526Z,100.00
2022-11-28T05:02:18.043Z,80.20
2022-11-28T05:04:45.682Z,80.69
2022-11-28T05:07:12.886Z,80.94
2022-11-28T05:09:40.198Z,80.94
2022-11-28T05:12:07.570Z,81.20
2022-11-28T05:14:34.826Z,100.00
2022-11-28T05:17:02.140Z,81.85
2022-11-28T05:19:29.268Z,82.12
2022-11-28T05:21:56.480Z,82.54
2022-11-28T05:24:26.761Z,82.58
2022-11-28T05:26:56.457Z,82.49
2022-11-28T05:29:25.665Z,75.72
2022-11-28T05:31:52.959Z,82.64
2022-11-28T05:34:20.219Z,83.08
2022-11-28T05:36:47.405Z,82.83
2022-11-28T05:39:14.696Z,83.11
2022-11-28T05:41:42.025Z,82.75
2022-11-28T05:44:10.406Z,82.67
2022-11-28T05:46:37.831Z,82.71
2022-11-28T05:49:05.101Z,82.95
2022-11-28T05:51:32.388Z,82.70
2022-11-28T05:53:59.560Z,100.00
2022-11-28T05:56:26.749Z,100.00
2022-11-28T05:58:54.434Z,82.08
2022-11-28T06:01:27.237Z,81.53
2022-11-28T06:04:00.163Z,81.89
2022-11-28T06:06:30.403Z,82.39
2022-11-28T06:08:57.827Z,82.01
2022-11-28T06:11:26.989Z,82.38
2022-11-28T06:13:54.414Z,82.28
2022-11-28T06:16:24.898Z,82.61
2022-11-28T06:18:59.776Z,82.42
2022-11-28T06:21:28.201Z,82.58
2022-11-28T06:23:56.515Z,82.13
2022-11-28T06:26:25.237Z,82.10
2022-11-28T06:28:52.592Z,82.29
2022-11-28T06:31:22.228Z,81.41
2022-11-28T06:33:50.262Z,100.00
2022-11-28T06:36:57.231Z,100.00
2022-11-28T06:39:24.659Z,80.92
2022-11-28T06:41:51.825Z,100.00
2022-11-28T06:44:19.161Z,80.95
2022-11-28T06:46:46.436Z,80.28
2022-11-28T06:49:14.450Z,80.50
2022-11-28T06:51:42.637Z,79.83
2022-11-28T06:54:09.983Z,79.21
2022-11-28T06:56:37.749Z,79.04
2022-11-28T06:59:04.916Z,78.64
2022-11-28T07:01:32.765Z,78.10
2022-11-28T07:04:00.225Z,77.87
2022-11-28T07:06:28.314Z,77.69
2022-11-28T07:08:59.651Z,77.32
2022-11-28T07:11:30.428Z,77.33
2022-11-28T07:13:59.173Z,77.25
2022-11-28T07:16:32.584Z,76.48
2022-11-28T07:19:00.004Z,76.51
2022-11-28T07:21:28.418Z,75.90
2022-11-28T07:23:55.742Z,75.14
2022-11-28T07:26:24.045Z,75.11
2022-11-28T07:28:51.848Z,75.00
2022-11-28T07:31:22.570Z,75.12
2022-11-28T07:33:51.394Z,75.52
2022-11-28T07:36:21.949Z,75.49
2022-11-28T07:38:55.272Z,75.16
2022-11-28T07:41:26.248Z,75.49
2022-11-28T07:43:56.673Z,75.49
2022-11-28T07:46:25.133Z,75.57
2022-11-28T07:48:52.654Z,74.58
2022-11-28T07:51:27.003Z,74.44
2022-11-28T07:53:54.665Z,73.91
2022-11-28T07:56:24.100Z,73.55
2022-11-28T07:58:51.403Z,73.03
2022-11-28T08:01:26.976Z,73.88
2022-11-28T08:03:54.584Z,75.85
2022-11-28T08:06:27.214Z,78.26
2022-11-28T08:08:55.549Z,79.01
2022-11-28T08:11:25.561Z,76.80
2022-11-28T08:13:56.350Z,75.29
2022-11-28T08:16:28.037Z,73.16
2022-11-28T08:18:56.165Z,72.41
2022-11-28T08:21:27.013Z,71.76
2022-11-28T08:23:56.333Z,70.06
2022-11-28T08:26:29.297Z,68.17
2022-11-28T08:28:59.207Z,66.29
2022-11-28T08:31:32.334Z,64.26
2022-11-28T08:34:02.169Z,63.63
2022-11-28T08:36:31.689Z,62.07
2022-11-28T08:39:23.009Z,61.68
2022-11-28T08:41:50.149Z,62.23
2022-11-28T08:44:17.374Z,64.91
2022-11-28T08:46:44.617Z,64.75
2022-11-28T08:49:11.744Z,67.11
2022-11-28T08:51:38.979Z,67.95
2022-11-28T08:54:06.270Z,69.44
2022-11-28T08:56:34.442Z,68.98
2022-11-28T08:59:01.724Z,66.60
2022-11-28T09:01:29.193Z,65.19
2022-11-28T09:03:57.188Z,62.36
2022-11-28T09:06:25.312Z,62.17
2022-11-28T09:08:52.803Z,61.47
2022-11-28T09:11:21.750Z,59.25
2022-11-28T09:13:49.733Z,55.59
2022-11-28T09:16:17.295Z,54.80
2022-11-28T09:18:44.774Z,53.87
2022-11-28T09:21:14.061Z,53.59
2022-11-28T09:23:43.717Z,54.93
2022-11-28T09:26:16.500Z,52.92
2022-11-28T09:28:44.225Z,54.22
2022-11-28T09:31:13.237Z,54.70
2022-11-28T09:33:41.006Z,56.40
2022-11-28T09:36:10.757Z,55.95
2022-11-28T09:38:38.244Z,53.14
2022-11-28T09:41:29.380Z,53.73
2022-11-28T09:44:03.521Z,55.55
2022-11-28T09:46:34.880Z,56.30
2022-11-28T09:49:09.704Z,58.46
2022-11-28T09:52:12.318Z,56.40
2022-11-28T09:55:02.598Z,57.22
2022-11-28T09:57:39.427Z,58.22
2022-11-28T10:00:17.094Z,58.25
2022-11-28T10:03:14.375Z,59.24
2022-11-28T10:06:02.010Z,61.54
2022-11-28T10:09:01.136Z,61.27
2022-11-28T10:11:49.940Z,62.05
2022-11-28T10:14:23.322Z,62.61
2022-11-28T10:16:58.255Z,62.67
2022-11-28T10:19:53.931Z,63.23
2022-11-28T10:23:04.397Z,65.43
2022-11-28T10:25:40.812Z,63.33
2022-11-28T10:28:15.852Z,63.66
2022-11-28T10:30:49.003Z,64.47
2022-11-28T10:33:24.454Z,64.14
2022-11-28T10:35:56.264Z,64.08
2022-11-28T10:38:27.572Z,63.75
2022-11-28T10:41:33.289Z,63.91
2022-11-28T10:44:22.645Z,64.35
2022-11-28T10:47:04.580Z,64.17
2022-11-28T10:49:43.767Z,63.94
2022-11-28T10:52:11.196Z,64.04
2022-11-28T10:54:44.048Z,64.00
2022-11-28T10:57:40.037Z,62.87
2022-11-28T11:00:18.547Z,63.22
2022-11-28T11:02:57.184Z,62.18
2022-11-28T11:05:36.152Z,62.14
2022-11-28T11:08:11.938Z,61.61
2022-11-28T11:10:49.633Z,62.75
2022-11-28T11:13:28.306Z,62.28
2022-11-28T11:16:11.647Z,62.22
2022-11-28T11:18:59.171Z,61.93
2022-11-28T11:21:28.001Z,62.67
2022-11-28T11:24:17.686Z,62.41
2022-11-28T11:26:47.470Z,61.28
2022-11-28T11:29:27.435Z,61.49
2022-11-28T11:31:55.385Z,61.52
2022-11-28T11:34:24.466Z,61.92
2022-11-28T11:36:51.981Z,61.08
2022-11-28T11:39:20.449Z,60.70
2022-11-28T11:42:10.271Z,60.68
2022-11-28T11:44:38.123Z,60.57
2022-11-28T11:47:07.086Z,60.91
2022-11-28T11:49:42.583Z,60.54
2022-11-28T11:52:15.804Z,60.18
2022-11-28T11:54:54.003Z,60.58
2022-11-28T11:57:33.208Z,59.37
2022-11-28T12:00:10.660Z,59.52
2022-11-28T12:02:44.949Z,60.72
2022-11-28T12:05:19.473Z,60.97
2022-11-28T12:08:05.510Z,62.25
2022-11-28T12:10:41.151Z,63.67
2022-11-28T12:13:20.437Z,63.22
2022-11-28T12:16:08.872Z,63.38
2022-11-28T12:19:03.408Z,62.71
2022-11-28T12:22:03.459Z,63.21
2022-11-28T12:24:36.903Z,63.03
2022-11-28T12:27:31.285Z,62.28
2022-11-28T12:30:15.542Z,61.91
2022-11-28T12:32:54.810Z,61.55
2022-11-28T12:35:32.885Z,62.39
2022-11-28T12:38:10.723Z,62.88
2022-11-28T12:40:57.661Z,65.14
2022-11-28T12:43:38.636Z,65.84
2022-11-28T12:46:23.995Z,65.41
2022-11-28T12:49:14.501Z,64.72
2022-11-28T12:52:18.391Z,64.62
2022-11-28T12:54:54.296Z,65.99
2022-11-28T12:57:39.852Z,66.20
2022-11-28T13:00:15.141Z,65.68
2022-11-28T13:03:06.936Z,65.77
2022-11-28T13:05:52.296Z,65.80
2022-11-28T13:08:48.201Z,65.76
2022-11-28T13:11:47.253Z,66.50
2022-11-28T13:14:23.610Z,66.63
2022-11-28T13:16:53.426Z,66.21
2022-11-28T13:19:38.840Z,67.52
2022-11-28T13:22:20.632Z,66.45
2022-11-28T13:25:12.344Z,66.29
2022-11-28T13:28:01.145Z,66.02
2022-11-28T13:30:36.095Z,67.29
2022-11-28T13:33:12.128Z,67.64
2022-11-28T13:35:43.067Z,67.32
2022-11-28T13:38:36.677Z,67.64
2022-11-28T13:41:43.329Z,67.43
2022-11-28T13:44:35.629Z,67.16
2022-11-28T13:47:28.134Z,67.53
2022-11-28T13:50:26.017Z,66.63
2022-11-28T13:53:10.469Z,67.21
2022-11-28T13:55:41.639Z,65.98
2022-11-28T13:58:32.307Z,66.28
2022-11-28T14:01:10.475Z,65.78
2022-11-28T14:03:48.648Z,66.91
2022-11-28T14:06:25.618Z,68.20
2022-11-28T14:09:47.838Z,68.56
2022-11-28T14:12:36.082Z,66.74
2022-11-28T14:15:24.814Z,67.14
2022-11-28T14:18:02.309Z,65.93
2022-11-28T14:20:47.968Z,66.47
2022-11-28T14:23:34.118Z,66.45
2022-11-28T14:26:02.149Z,66.08
2022-11-28T14:28:40.389Z,65.90
2022-11-28T14:31:11.337Z,66.20
2022-11-28T14:33:42.991Z,66.31
2022-11-28T14:36:34.772Z,66.21
2022-11-28T14:39:16.701Z,66.57
2022-11-28T14:42:44.048Z,66.13
2022-11-28T14:45:32.910Z,64.93
2022-11-28T14:48:18.668Z,64.96
2022-11-28T14:50:46.486Z,65.45
2022-11-28T14:53:43.797Z,64.71
2022-11-28T14:56:28.557Z,65.27
2022-11-28T14:58:59.144Z,64.14
2022-11-28T15:01:54.523Z,64.74
2022-11-28T15:05:00.786Z,65.02
2022-11-28T15:07:35.633Z,64.71
2022-11-28T15:10:24.182Z,65.03
2022-11-28T15:13:06.921Z,65.23
2022-11-28T15:15:34.789Z,65.94
2022-11-28T15:18:05.021Z,65.95
2022-11-28T15:20:48.730Z,64.92
2022-11-28T15:23:29.491Z,64.96
2022-11-28T15:25:58.414Z,65.53
2022-11-28T15:28:29.075Z,65.41
2022-11-28T15:30:59.491Z,65.69
2022-11-28T15:33:29.845Z,66.96
2022-11-28T15:36:02.685Z,66.52
2022-11-28T15:38:32.139Z,67.59
2022-11-28T15:41:00.844Z,66.92
2022-11-28T15:43:30.818Z,67.05
2022-11-28T15:46:01.378Z,65.79
2022-11-28T15:48:47.308Z,65.44
2022-11-28T15:51:32.935Z,65.13
2022-11-28T15:54:03.639Z,65.72
2022-11-28T15:56:31.024Z,65.66
2022-11-28T15:58:58.264Z,65.56
2022-11-28T16:01:27.681Z,65.41
2022-11-28T16:04:03.752Z,65.49
2022-11-28T16:06:34.435Z,65.31
2022-11-28T16:09:06.761Z,63.61
2022-11-28T16:11:36.278Z,63.05
2022-11-28T16:14:09.649Z,63.43
2022-11-28T16:16:38.941Z,63.81
2022-11-28T16:19:35.503Z,63.81
2022-11-28T16:22:11.373Z,63.82
2022-11-28T16:24:47.759Z,64.16
2022-11-28T16:27:33.591Z,63.15
2022-11-28T16:30:02.006Z,63.13
2022-11-28T16:32:35.904Z,63.09
2022-11-28T16:35:04.222Z,63.00
2022-11-28T16:37:33.168Z,62.60
2022-11-28T16:40:00.382Z,62.95
2022-11-28T16:42:28.508Z,62.51
2022-11-28T16:44:55.684Z,63.30
2022-11-28T16:47:29.738Z,62.84
2022-11-28T16:50:17.041Z,62.86
2022-11-28T16:52:46.066Z,62.89
2022-11-28T16:55:32.633Z,63.11
2022-11-28T16:58:11.156Z,63.51
2022-11-28T17:00:41.251Z,63.39
2022-11-28T17:03:40.000Z,63.41
2022-11-28T17:06:15.812Z,63.18
2022-11-28T17:08:43.479Z,62.78
2022-11-28T17:11:11.929Z,62.79
2022-11-28T17:13:39.228Z,63.05
2022-11-28T17:16:06.673Z,63.86
2022-11-28T17:18:33.974Z,64.68
2022-11-28T17:21:01.073Z,66.22
2022-11-28T17:23:28.360Z,66.07
2022-11-28T17:25:55.603Z,66.60
2022-11-28T17:28:27.827Z,66.95
2022-11-28T17:30:56.037Z,67.35
2022-11-28T17:33:23.315Z,68.59
2022-11-28T17:35:53.840Z,69.33
2022-11-28T17:38:21.258Z,69.45
2022-11-28T17:40:49.911Z,69.67
2022-11-28T17:43:22.094Z,70.05
2022-11-28T17:45:51.032Z,69.97
2022-11-28T17:48:18.982Z,70.00
2022-11-28T17:50:49.723Z,69.91
2022-11-28T17:53:19.776Z,69.58
2022-11-28T17:55:49.250Z,69.85
2022-11-28T17:58:26.758Z,69.56
2022-11-28T18:01:00.265Z,69.99
2022-11-28T18:03:28.752Z,69.95
2022-11-28T18:05:56.085Z,70.29
2022-11-28T18:08:23.509Z,70.15
2022-11-28T18:11:11.812Z,70.15
2022-11-28T18:13:39.770Z,70.32
2022-11-28T18:16:07.412Z,69.74
2022-11-28T18:18:34.771Z,69.68
2022-11-28T18:21:02.272Z,69.58
2022-11-28T18:23:31.084Z,69.82
2022-11-28T18:25:58.298Z,69.97
2022-11-28T18:28:25.807Z,69.41
2022-11-28T18:30:53.211Z,69.24
2022-11-28T18:33:20.925Z,68.36
2022-11-28T18:35:48.019Z,69.13
2022-11-28T18:38:15.124Z,68.69
2022-11-28T18:40:42.483Z,68.88
2022-11-28T18:43:09.732Z,68.48
2022-11-28T18:45:37.393Z,68.72
2022-11-28T18:48:05.717Z,68.76
2022-11-28T18:50:35.040Z,68.85
2022-11-28T18:53:02.490Z,69.55
2022-11-28T18:55:30.018Z,69.77
2022-11-28T18:57:57.632Z,69.79
2022-11-28T19:00:24.983Z,69.80
2022-11-28T19:02:55.083Z,69.85
2022-11-28T19:05:23.267Z,70.14
2022-11-28T19:07:50.606Z,69.96
2022-11-28T19:10:18.275Z,70.05
2022-11-28T19:12:45.577Z,69.38
2022-11-28T19:15:13.005Z,68.93
2022-11-28T19:17:40.850Z,68.98
2022-11-28T19:20:10.109Z,69.37
2022-11-28T19:22:37.251Z,69.60
2022-11-28T19:25:04.908Z,69.36
2022-11-28T19:27:32.251Z,69.88
2022-11-28T19:29:59.455Z,69.76
2022-11-28T19:32:26.788Z,69.27
2022-11-28T19:34:54.400Z,69.70
2022-11-28T19:37:22.746Z,69.69
2022-11-28T19:39:52.126Z,69.91
2022-11-28T19:42:19.384Z,70.13
2022-11-28T19:44:46.700Z,70.03
2022-11-28T19:47:13.903Z,70.36
2022-11-28T19:49:41.604Z,70.93
2022-11-28T19:52:08.943Z,71.25
2022-11-28T19:54:37.346Z,71.33
2022-11-28T19:57:04.616Z,71.91
2022-11-28T19:59:31.860Z,71.87
2022-11-28T20:01:59.186Z,71.55
2022-11-28T20:04:27.430Z,70.59
2022-11-28T20:06:54.581Z,70.14
2022-11-28T20:09:22.026Z,69.97
2022-11-28T20:11:49.497Z,69.38
2022-11-28T20:14:19.412Z,69.05
2022-11-28T20:16:47.231Z,69.44
2022-11-28T20:19:16.296Z,70.08
2022-11-28T20:21:46.344Z,70.26
2022-11-28T20:24:17.119Z,70.21
2022-11-28T20:26:46.584Z,70.68
2022-11-28T20:29:16.547Z,70.79
2022-11-28T20:31:47.832Z,70.85
2022-11-28T20:34:18.951Z,70.67
2022-11-28T20:36:53.469Z,70.69
2022-11-28T20:39:21.280Z,71.73
2022-11-28T20:41:48.579Z,71.65
2022-11-28T20:44:16.255Z,72.15
2022-11-28T20:46:46.577Z,72.11
2022-11-28T20:49:17.620Z,72.84
2022-11-28T20:51:45.243Z,73.11
2022-11-28T20:54:14.061Z,73.46
2022-11-28T20:57:12.797Z,74.11
2022-11-28T20:59:30.895Z,74.57
2022-11-28T21:01:58.688Z,74.97
2022-11-28T21:04:25.876Z,75.24
2022-11-28T21:06:53.247Z,74.38
2022-11-28T21:09:20.782Z,74.45
2022-11-28T21:11:58.693Z,74.62
2022-11-28T21:14:28.827Z,74.65
2022-11-28T21:16:57.661Z,74.79
2022-11-28T21:19:25.551Z,74.92
2022-11-28T21:21:53.180Z,74.83
2022-11-28T21:24:20.916Z,74.98
2022-11-28T21:26:53.395Z,74.94
2022-11-28T21:29:24.544Z,75.02
2022-11-28T21:31:52.696Z,75.56
2022-11-28T21:34:20.306Z,75.61
2022-11-28T21:36:47.732Z,76.44
2022-11-28T21:39:18.991Z,76.86
2022-11-28T21:41:46.565Z,76.83
2022-11-28T21:44:14.234Z,76.83
2022-11-28T21:46:41.505Z,77.20
2022-11-28T21:49:08.926Z,77.20
2022-11-28T21:51:39.930Z,77.39
2022-11-28T21:54:07.858Z,77.66
2022-11-28T21:56:35.218Z,77.75
2022-11-28T21:59:04.632Z,77.66
2022-11-28T22:01:32.014Z,78.29
2022-11-28T22:04:02.794Z,78.19
2022-11-28T22:06:31.669Z,78.24
2022-11-28T22:09:03.302Z,78.63
2022-11-28T22:11:34.704Z,79.31
2022-11-28T22:14:03.301Z,79.24
2022-11-28T22:16:30.886Z,80.01
2022-11-28T22:19:00.381Z,79.90
2022-11-28T22:24:14.973Z,80.21
2022-11-28T22:26:44.028Z,80.61
2022-11-28T22:29:12.216Z,80.40
2022-11-28T22:31:40.217Z,80.68
2022-11-28T22:34:09.158Z,80.78
2022-11-28T22:36:36.754Z,81.38
2022-11-28T22:39:04.919Z,81.75
2022-11-28T22:41:32.433Z,81.83
2022-11-28T22:44:03.081Z,82.38
2022-11-28T22:46:32.214Z,82.14
2022-11-28T22:49:03.502Z,81.97
2022-11-28T22:51:31.447Z,81.78
2022-11-28T22:54:00.950Z,81.67
2022-11-28T22:56:32.086Z,81.54
2022-11-28T22:59:00.882Z,81.12
2022-11-28T23:01:31.079Z,81.13
2022-11-28T23:03:59.781Z,81.29
2022-11-28T23:06:29.910Z,81.24
2022-11-28T23:08:59.147Z,81.37
2022-11-28T23:11:31.037Z,80.88
2022-11-28T23:13:59.637Z,80.91
2022-11-28T23:16:36.410Z,80.26
2022-11-28T23:19:07.687Z,80.19
2022-11-28T23:21:37.342Z,80.47
2022-11-28T23:24:05.763Z,80.32
2022-11-28T23:26:34.559Z,80.06
2022-11-28T23:29:05.446Z,80.37
2022-11-28T23:31:37.220Z,80.57
2022-11-28T23:34:06.192Z,80.21
2022-11-28T23:36:41.840Z,79.50
2022-11-28T23:39:19.276Z,79.26
2022-11-28T23:41:47.454Z,79.26
2022-11-28T23:44:16.150Z,79.18
2022-11-28T23:46:44.575Z,79.43
2022-11-28T23:49:12.591Z,79.33
2022-11-28T23:51:40.872Z,79.22
2022-11-28T23:54:09.258Z,79.28
2022-11-28T23:56:38.246Z,79.07
2022-11-28T23:59:09.376Z,78.77
